Time;durP1;ratioP1;P1;durP2;ratioP2;P2;SDS_P1;SDS_P2;PMS_P1;PMS_P2;Temp;Humidity;BMP_temperature;BMP_pressure;BME280_temperature;BME280_humidity;BME280_pressure;Samples;Min_cycle;Max_cycle;Signal;HPM_P1;HPM_P2
2022/11/20 00:00:48;;;;;;;15.05;6.78;;;-2.10;99.90;;;;;;4894080;29;21175;-71
2022/11/20 00:03:14;;;;;;;11.98;6.20;;;-2.10;99.90;;;;;;4893358;29;20080;-70
2022/11/20 00:05:39;;;;;;;15.48;7.03;;;-2.10;99.90;;;;;;4892802;29;20044;-75
2022/11/20 00:08:05;;;;;;;15.18;6.50;;;-2.10;99.90;;;;;;4893006;29;20119;-71
2022/11/20 00:10:31;;;;;;;14.07;6.85;;;-2.10;99.90;;;;;;4909685;29;20040;-70
2022/11/20 00:12:58;;;;;;;11.88;5.72;;;-2.10;99.90;;;;;;4891790;29;20140;-71
2022/11/20 00:15:24;;;;;;;14.48;6.88;;;-2.10;99.90;;;;;;4894041;29;20050;-70
2022/11/20 00:17:50;;;;;;;13.05;6.07;;;-2.00;99.90;;;;;;4891138;29;20049;-72
2022/11/20 00:20:15;;;;;;;15.95;6.72;;;-2.00;99.90;;;;;;4872012;29;20509;-72
2022/11/20 00:22:41;;;;;;;18.75;7.25;;;-2.00;99.90;;;;;;4894932;29;20099;-71
2022/11/20 00:25:07;;;;;;;19.95;6.63;;;-1.90;99.90;;;;;;4886848;29;20052;-71
2022/11/20 00:27:33;;;;;;;17.30;6.45;;;-1.80;99.90;;;;;;4893678;29;20063;-71
2022/11/20 00:29:58;;;;;;;15.73;6.80;;;-1.70;99.90;;;;;;4888141;29;20482;-70
2022/11/20 00:32:24;;;;;;;16.77;7.30;;;-1.70;99.90;;;;;;4892820;29;20048;-71
2022/11/20 00:34:50;;;;;;;13.35;6.90;;;-1.50;99.90;;;;;;4892381;29;20088;-70
2022/11/20 00:37:15;;;;;;;16.02;6.05;;;-1.50;99.90;;;;;;4893862;29;20614;-71
2022/11/20 00:39:41;;;;;;;18.50;6.28;;;-1.40;99.90;;;;;;4890896;29;20057;-71
2022/11/20 00:42:07;;;;;;;13.40;6.55;;;-1.40;99.90;;;;;;4887802;29;20045;-71
2022/11/20 00:44:32;;;;;;;16.77;7.40;;;-1.40;99.90;;;;;;4894708;29;20055;-71
2022/11/20 00:46:58;;;;;;;14.93;6.78;;;-1.30;99.90;;;;;;4909049;29;20565;-74
2022/11/20 00:49:24;;;;;;;15.65;6.93;;;-1.30;99.90;;;;;;4892652;29;20558;-71
2022/11/20 00:51:49;;;;;;;16.17;7.07;;;-1.20;99.90;;;;;;4894366;29;20096;-71
2022/11/20 00:54:15;;;;;;;16.48;7.97;;;-1.20;99.90;;;;;;4894047;29;20052;-71
2022/11/20 00:56:41;;;;;;;14.15;6.38;;;-1.10;99.90;;;;;;4903998;29;20100;-70
2022/11/20 00:59:08;;;;;;;16.63;6.15;;;-1.10;99.90;;;;;;4893792;29;20076;-72
2022/11/20 01:01:35;;;;;;;15.38;6.10;;;-1.10;99.90;;;;;;4887034;29;20152;-72
2022/11/20 01:04:01;;;;;;;15.88;6.80;;;-1.10;99.90;;;;;;4894842;29;20062;-73
2022/11/20 01:06:32;;;;;;;12.93;7.00;;;-1.00;99.90;;;;;;4896334;29;20655;-71
2022/11/20 01:09:01;;;;;;;15.18;6.55;;;-1.10;99.90;;;;;;4897352;29;20510;-75
2022/11/20 01:11:29;;;;;;;13.45;6.28;;;-0.50;99.90;;;;;;4895942;29;20083;-72
2022/11/20 01:13:56;;;;;;;15.63;6.32;;;-1.00;99.90;;;;;;4897151;29;20056;-71
2022/11/20 01:16:26;;;;;;;14.60;6.05;;;-1.00;99.90;;;;;;4897314;29;20131;-71
2022/11/20 01:18:55;;;;;;;14.27;6.45;;;-1.00;99.90;;;;;;4887448;29;20131;-71
2022/11/20 01:21:25;;;;;;;14.93;6.70;;;-0.90;99.90;;;;;;4879117;29;20048;-71
2022/11/20 01:23:51;;;;;;;13.38;5.90;;;-1.00;99.90;;;;;;4879271;29;20049;-71
2022/11/20 01:26:20;;;;;;;15.40;6.50;;;-1.00;99.90;;;;;;4878153;29;20133;-71
2022/11/20 01:28:47;;;;;;;14.10;5.47;;;-0.90;99.90;;;;;;4879716;29;20059;-70
2022/11/20 01:31:19;;;;;;;11.23;5.85;;;-0.90;99.90;;;;;;4877865;29;20061;-71
2022/11/20 01:33:47;;;;;;;16.05;6.22;;;-0.90;99.90;;;;;;4878529;29;20057;-71
2022/11/20 01:36:14;;;;;;;15.25;6.45;;;-0.80;99.90;;;;;;4876001;29;20769;-71
2022/11/20 01:38:39;;;;;;;12.27;6.00;;;-0.80;99.90;;;;;;4894300;29;20052;-70
2022/11/20 01:41:06;;;;;;;17.63;7.65;;;-0.80;99.90;;;;;;4893091;29;20045;-71
2022/11/20 01:43:33;;;;;;;19.15;6.20;;;-0.80;99.90;;;;;;4896969;29;20503;-71
2022/11/20 01:46:00;;;;;;;15.95;6.95;;;-0.90;99.90;;;;;;4881844;29;20045;-71
2022/11/20 01:48:35;;;;;;;14.95;6.70;;;-0.90;99.90;;;;;;4878814;29;20088;-71
2022/11/20 01:51:01;;;;;;;15.88;6.30;;;-1.00;99.90;;;;;;4884665;29;20056;-71
2022/11/20 01:53:32;;;;;;;16.30;5.40;;;-0.90;99.90;;;;;;4895743;29;20095;-71
2022/11/20 01:56:00;;;;;;;15.85;6.65;;;-0.90;99.90;;;;;;4897467;29;20380;-71
2022/11/20 01:58:34;;;;;;;14.25;6.40;;;-0.90;99.90;;;;;;4897350;29;20056;-71
2022/11/20 02:01:00;;;;;;;15.48;7.07;;;-0.90;99.90;;;;;;4887787;29;20045;-71
2022/11/20 02:03:26;;;;;;;14.02;6.15;;;-0.90;99.90;;;;;;4878221;29;20052;-71
2022/11/20 02:05:56;;;;;;;12.95;6.15;;;-0.80;99.90;;;;;;4877047;29;20574;-72
2022/11/20 02:08:23;;;;;;;16.00;6.40;;;-0.80;99.90;;;;;;4877869;29;20053;-70
2022/11/20 02:10:49;;;;;;;12.75;5.88;;;-0.70;99.90;;;;;;4882253;29;20403;-71
2022/11/20 02:16:00;;;;;;;15.70;6.20;;;-0.70;99.90;;;;;;4896797;29;20156;-71
2022/11/20 02:18:26;;;;;;;;;;;-0.60;99.90;;;;;;4877717;29;20626;-71
2022/11/20 02:21:01;;;;;;;16.08;6.50;;;-0.60;99.90;;;;;;4877351;29;19928;-72
2022/11/20 02:23:40;;;;;;;13.50;6.25;;;-0.60;99.90;;;;;;4877865;29;20162;-71
2022/11/20 02:26:10;;;;;;;14.60;5.55;;;-0.60;99.90;;;;;;4878533;29;20084;-75
2022/11/20 02:28:36;;;;;;;15.82;6.53;;;-0.60;99.90;;;;;;4892787;29;20083;-71
2022/11/20 02:31:02;;;;;;;11.90;5.70;;;-0.60;99.90;;;;;;4892202;29;20112;-71
2022/11/20 02:33:27;;;;;;;14.32;6.30;;;-0.60;99.90;;;;;;4876998;29;20053;-71
2022/11/20 02:35:53;;;;;;;15.05;6.88;;;-0.70;99.90;;;;;;4888831;29;20071;-71
2022/11/20 02:38:19;;;;;;;14.88;6.32;;;-0.70;99.90;;;;;;4886729;29;20056;-71
2022/11/20 02:40:45;;;;;;;12.57;5.70;;;-0.70;99.90;;;;;;4883021;29;20111;-71
2022/11/20 02:43:11;;;;;;;12.82;6.47;;;-0.70;99.90;;;;;;4882605;29;20515;-71
2022/11/20 02:45:37;;;;;;;13.05;6.30;;;-0.60;99.90;;;;;;4877948;29;20052;-72
2022/11/20 02:48:03;;;;;;;;;;;-0.60;99.90;;;;;;4877678;29;20057;-71
2022/11/20 02:50:28;;;;;;;16.30;6.38;;;-0.60;99.90;;;;;;4879735;29;19991;-71
2022/11/20 02:52:54;;;;;;;17.20;7.50;;;-0.60;99.90;;;;;;4871496;29;20060;-71
2022/11/20 02:55:20;;;;;;;16.00;7.00;;;-0.60;99.90;;;;;;4882628;29;20040;-70
2022/11/20 02:57:45;;;;;;;15.10;6.95;;;-0.60;99.90;;;;;;4885742;29;20053;-71
2022/11/20 03:00:12;;;;;;;16.60;6.32;;;-0.60;99.90;;;;;;4877203;29;20097;-72
2022/11/20 03:02:37;;;;;;;14.32;6.38;;;-0.60;99.90;;;;;;4885558;29;20132;-71
2022/11/20 03:05:03;;;;;;;16.33;6.82;;;-0.60;99.90;;;;;;4876332;29;20574;-71
2022/11/20 03:07:29;;;;;;;18.40;7.43;;;-0.70;99.90;;;;;;4877084;29;20068;-72
2022/11/20 03:09:55;;;;;;;16.30;7.63;;;-0.60;99.90;;;;;;4861286;29;20461;-71
2022/11/20 03:12:21;;;;;;;16.60;6.63;;;-0.60;99.90;;;;;;4878503;29;20103;-71
2022/11/20 03:14:46;;;;;;;15.45;6.30;;;-0.60;99.90;;;;;;4891018;29;20069;-72
2022/11/20 03:17:12;;;;;;;15.05;6.68;;;-0.60;99.90;;;;;;4908886;29;20462;-75
2022/11/20 03:19:38;;;;;;;13.90;5.95;;;-0.60;99.90;;;;;;4890075;29;20049;-71
2022/11/20 03:22:03;;;;;;;15.52;6.50;;;-0.60;99.90;;;;;;4895365;29;20139;-70
2022/11/20 03:24:29;;;;;;;11.95;5.90;;;-0.60;99.90;;;;;;4885702;29;20091;-72
2022/11/20 03:26:55;;;;;;;14.32;6.03;;;-0.60;99.90;;;;;;4876601;29;20057;-71
2022/11/20 03:29:20;;;;;;;13.95;5.85;;;-0.50;99.90;;;;;;4875736;29;20117;-72
2022/11/20 03:31:46;;;;;;;14.52;6.57;;;-0.50;99.90;;;;;;4877191;29;20060;-71
2022/11/20 03:34:12;;;;;;;14.90;6.95;;;-0.50;99.90;;;;;;4894309;29;20056;-75
2022/11/20 03:36:42;;;;;;;14.80;6.75;;;-0.40;99.90;;;;;;4897255;29;20112;-71
2022/11/20 03:39:08;;;;;;;15.43;6.88;;;-0.30;99.90;;;;;;4890911;29;20057;-71
2022/11/20 03:41:38;;;;;;;;;;;-0.30;99.90;;;;;;4887147;29;20726;-71
2022/11/20 03:44:06;;;;;;;14.90;6.10;;;-0.30;99.90;;;;;;4894940;29;20404;-71
2022/11/20 03:46:32;;;;;;;13.18;6.18;;;-0.30;99.90;;;;;;4893406;29;20048;-71
2022/11/20 03:48:58;;;;;;;15.20;6.38;;;-0.30;99.90;;;;;;4894958;29;20557;-71
2022/11/20 03:51:26;;;;;;;11.07;5.97;;;-0.30;99.90;;;;;;4894043;29;20052;-72
2022/11/20 03:53:54;;;;;;;15.32;7.00;;;-0.30;99.90;;;;;;4895102;29;20049;-71
2022/11/20 03:56:24;;;;;;;18.70;6.82;;;-0.30;99.90;;;;;;4891915;29;20435;-70
2022/11/20 03:58:50;;;;;;;15.45;6.47;;;-0.10;99.90;;;;;;4894331;29;20051;-71
2022/11/20 04:01:21;;;;;;;12.82;5.85;;;-0.20;99.90;;;;;;4894017;29;20048;-74
2022/11/20 04:03:47;;;;;;;14.65;6.03;;;-0.20;99.90;;;;;;4895772;29;20052;-71
2022/11/20 04:06:19;;;;;;;14.70;6.72;;;-0.30;99.90;;;;;;4881608;29;20049;-72
2022/11/20 04:08:45;;;;;;;18.58;6.93;;;-0.30;99.90;;;;;;4876654;29;20178;-71
2022/11/20 04:11:10;;;;;;;;;;;-0.20;99.90;;;;;;4889777;29;20507;-72
2022/11/20 04:13:37;;;;;;;14.60;5.97;;;-0.20;99.90;;;;;;4895025;29;20010;-71
2022/11/20 04:16:03;;;;;;;13.38;5.88;;;-0.30;99.90;;;;;;4887206;29;20053;-71
2022/11/20 04:18:28;;;;;;;;;;;-0.30;99.90;;;;;;4900293;29;20103;-71
2022/11/20 04:20:57;;;;;;;12.38;6.03;;;-0.30;99.90;;;;;;4893868;29;19927;-71
2022/11/20 04:23:22;;;;;;;13.43;5.95;;;-0.30;99.90;;;;;;4894262;29;20059;-71
2022/11/20 04:25:48;;;;;;;16.90;6.22;;;-0.30;99.90;;;;;;4877825;29;20403;-72
2022/11/20 04:28:14;;;;;;;14.93;7.13;;;-0.30;99.90;;;;;;4894974;29;20159;-71
2022/11/20 04:30:39;;;;;;;20.33;6.22;;;-0.30;99.90;;;;;;4894450;29;20681;-71
2022/11/20 04:33:05;;;;;;;15.25;6.45;;;-0.30;99.90;;;;;;4894824;29;20064;-72
2022/11/20 04:35:34;;;;;;;16.20;6.43;;;-0.30;99.90;;;;;;4891700;29;20051;-73
2022/11/20 04:38:00;;;;;;;13.77;6.15;;;-0.30;99.90;;;;;;4890386;29;20054;-70
2022/11/20 04:40:25;;;;;;;15.35;7.03;;;-0.20;99.90;;;;;;4897348;29;20048;-71
2022/11/20 04:42:51;;;;;;;18.75;7.53;;;-0.10;99.90;;;;;;4897349;29;20052;-70
2022/11/20 04:45:17;;;;;;;14.43;6.25;;;-0.20;99.90;;;;;;4865276;29;20068;-71
2022/11/20 04:47:42;;;;;;;12.90;6.53;;;0.00;99.90;;;;;;4897652;29;20049;-71
2022/11/20 04:50:08;;;;;;;17.23;7.80;;;-0.20;99.90;;;;;;4895616;29;20058;-71
2022/11/20 04:52:34;;;;;;;;;;;-0.20;99.90;;;;;;4859631;29;20192;-71
2022/11/20 04:55:00;;;;;;;13.30;6.13;;;-0.20;99.90;;;;;;4891258;29;19987;-71
2022/11/20 04:57:25;;;;;;;14.80;6.55;;;-0.20;99.90;;;;;;4910778;29;20047;-71
2022/11/20 04:59:51;;;;;;;17.38;7.03;;;-0.20;99.90;;;;;;4879753;29;20060;-71
2022/11/20 05:02:17;;;;;;;14.77;6.85;;;-0.30;99.90;;;;;;4887414;29;20200;-71
2022/11/20 05:04:42;;;;;;;13.65;6.47;;;-0.20;99.90;;;;;;4896863;29;20052;-71
2022/11/20 05:07:08;;;;;;;14.68;6.40;;;-0.20;99.90;;;;;;4897825;29;20045;-71
2022/11/20 05:09:34;;;;;;;13.63;6.28;;;-0.30;99.90;;;;;;4897871;29;20116;-71
2022/11/20 05:11:59;;;;;;;13.88;5.93;;;-0.20;99.90;;;;;;4898589;29;20049;-71
2022/11/20 05:14:25;;;;;;;15.10;6.72;;;-0.20;99.90;;;;;;4896229;29;20474;-74
2022/11/20 05:16:51;;;;;;;14.73;6.80;;;-0.20;99.90;;;;;;4881202;29;20056;-71
2022/11/20 05:19:17;;;;;;;17.70;6.63;;;-0.30;99.90;;;;;;4897206;29;20059;-72
2022/11/20 05:21:42;;;;;;;13.93;6.35;;;-0.30;99.90;;;;;;4895415;29;20063;-72
2022/11/20 05:24:08;;;;;;;14.07;6.30;;;-0.30;99.90;;;;;;4878145;29;20091;-71
2022/11/20 05:26:33;;;;;;;15.38;7.53;;;-0.30;99.90;;;;;;4880797;29;20045;-71
2022/11/20 05:28:59;;;;;;;16.90;6.65;;;-0.20;99.90;;;;;;4898058;29;20048;-72
2022/11/20 05:31:25;;;;;;;17.80;7.18;;;-0.20;99.90;;;;;;4911815;29;20041;-71
2022/11/20 05:33:51;;;;;;;15.02;6.63;;;-0.20;99.90;;;;;;4896652;29;20049;-72
2022/11/20 05:36:17;;;;;;;17.67;7.95;;;-0.20;99.90;;;;;;4888458;29;20097;-72
2022/11/20 05:38:44;;;;;;;15.18;6.30;;;-0.20;99.90;;;;;;4895862;29;20545;-70
2022/11/20 05:41:18;;;;;;;15.13;6.93;;;-0.20;99.90;;;;;;4897903;29;20056;-71
2022/11/20 05:43:45;;;;;;;15.30;6.88;;;-0.30;99.90;;;;;;4897329;29;20129;-71
2022/11/20 05:46:14;;;;;;;15.48;6.78;;;-0.30;99.90;;;;;;4895814;29;20048;-71
2022/11/20 05:48:41;;;;;;;16.42;7.20;;;-0.30;99.90;;;;;;4883354;29;20132;-74
2022/11/20 05:51:09;;;;;;;13.82;6.43;;;-0.20;99.90;;;;;;4891147;29;20059;-71
2022/11/20 05:53:36;;;;;;;13.13;6.05;;;-0.20;99.90;;;;;;4891391;29;20443;-71
2022/11/20 05:56:08;;;;;;;16.75;6.70;;;-0.20;99.90;;;;;;4911781;29;20053;-71
2022/11/20 05:58:33;;;;;;;15.48;6.65;;;-0.20;99.90;;;;;;4896352;29;20135;-71
2022/11/20 06:01:15;;;;;;;19.50;7.43;;;-0.20;99.90;;;;;;4894140;29;20045;-71
2022/11/20 06:03:43;;;;;;;12.57;5.88;;;-0.20;99.90;;;;;;4904429;29;20041;-72
2022/11/20 06:06:09;;;;;;;18.27;6.82;;;-0.20;99.90;;;;;;4894506;29;20060;-71
2022/11/20 06:08:35;;;;;;;12.98;6.60;;;-0.20;99.90;;;;;;4894880;29;20051;-70
2022/11/20 06:11:08;;;;;;;13.98;6.72;;;-0.10;99.90;;;;;;4894769;29;20056;-72
2022/11/20 06:13:35;;;;;;;18.08;6.75;;;-0.20;99.90;;;;;;4911457;29;20060;-73
2022/11/20 06:16:01;;;;;;;18.83;6.90;;;-0.20;99.90;;;;;;4896925;29;20060;-71
2022/11/20 06:18:30;;;;;;;18.35;6.40;;;-0.10;99.90;;;;;;4892172;29;20135;-71
2022/11/20 06:21:04;;;;;;;21.55;7.40;;;-0.10;99.90;;;;;;4878621;29;20136;-70
2022/11/20 06:23:32;;;;;;;14.80;6.20;;;-0.10;99.90;;;;;;4910751;29;20056;-71
2022/11/20 06:26:02;;;;;;;16.52;6.78;;;-0.10;99.90;;;;;;4888166;29;20048;-72
2022/11/20 06:28:27;;;;;;;19.08;6.60;;;-0.10;99.90;;;;;;4896097;29;20049;-71
2022/11/20 06:30:53;;;;;;;15.07;6.57;;;-0.10;99.90;;;;;;4895353;29;20716;-73
2022/11/20 06:33:19;;;;;;;19.63;6.57;;;-0.10;99.90;;;;;;4893904;29;20044;-72
2022/11/20 06:35:44;;;;;;;13.52;6.43;;;0.00;99.90;;;;;;4909190;29;20049;-71
2022/11/20 06:38:10;;;;;;;17.63;7.00;;;-0.20;99.90;;;;;;4895438;29;20112;-70
2022/11/20 06:40:35;;;;;;;15.43;6.65;;;-0.10;99.90;;;;;;4892237;29;20084;-74
2022/11/20 06:43:01;;;;;;;14.98;6.57;;;-0.20;99.90;;;;;;4883985;29;20057;-71
2022/11/20 06:45:27;;;;;;;14.25;6.97;;;-0.10;99.90;;;;;;4892512;29;20517;-72
2022/11/20 06:47:52;;;;;;;15.73;6.93;;;-0.20;99.90;;;;;;4895132;29;20049;-71
2022/11/20 06:50:18;;;;;;;14.68;7.22;;;-0.20;99.90;;;;;;4895071;29;20443;-71
2022/11/20 06:52:44;;;;;;;17.08;7.13;;;-0.30;99.90;;;;;;4907929;29;20459;-71
2022/11/20 06:55:09;;;;;;;20.10;8.40;;;-0.30;99.90;;;;;;4890288;29;20045;-71
2022/11/20 06:57:35;;;;;;;16.73;7.40;;;-0.30;99.90;;;;;;4876598;29;20495;-71
2022/11/20 07:00:01;;;;;;;16.48;7.40;;;-0.40;99.90;;;;;;4877137;29;20088;-72
2022/11/20 07:02:26;;;;;;;18.40;7.68;;;-0.30;99.90;;;;;;4877533;29;20053;-71
2022/11/20 07:04:52;;;;;;;13.80;6.55;;;-0.30;99.90;;;;;;4877236;29;20052;-71
2022/11/20 07:07:17;;;;;;;13.43;6.72;;;-0.30;99.90;;;;;;4888320;29;20495;-71
2022/11/20 07:09:43;;;;;;;14.20;6.72;;;-0.30;99.90;;;;;;4886690;29;20060;-71
2022/11/20 07:12:09;;;;;;;14.18;6.22;;;-0.30;99.90;;;;;;4895191;29;20056;-71
2022/11/20 07:14:35;;;;;;;11.65;6.07;;;-0.40;99.90;;;;;;4894287;29;20056;-72
2022/11/20 07:17:00;;;;;;;15.65;6.43;;;-0.30;99.90;;;;;;4893423;29;20052;-71
2022/11/20 07:19:26;;;;;;;16.15;7.25;;;-0.30;99.90;;;;;;4893642;29;20406;-71
2022/11/20 07:21:52;;;;;;;18.42;6.90;;;-0.30;99.90;;;;;;4863166;29;20056;-72
2022/11/20 07:24:17;;;;;;;16.35;7.18;;;-0.20;99.90;;;;;;4895191;29;20067;-70
2022/11/20 07:26:47;;;;;;;16.80;7.00;;;-0.20;99.90;;;;;;4894412;29;20052;-75
2022/11/20 07:29:13;;;;;;;14.50;6.35;;;-0.20;99.90;;;;;;4880338;29;20065;-71
2022/11/20 07:31:39;;;;;;;14.23;6.57;;;-0.10;99.90;;;;;;4891852;29;20052;-71
2022/11/20 07:34:04;;;;;;;13.82;7.07;;;-0.10;99.90;;;;;;4880853;29;20132;-71
2022/11/20 07:36:30;;;;;;;14.40;6.28;;;-0.10;99.90;;;;;;4886243;29;20053;-70
2022/11/20 07:38:56;;;;;;;18.63;6.40;;;-0.10;99.90;;;;;;4891358;29;20068;-71
2022/11/20 07:41:21;;;;;;;14.85;6.80;;;-0.20;99.90;;;;;;4896166;29;20063;-71
2022/11/20 07:43:47;;;;;;;15.20;7.70;;;-0.10;99.90;;;;;;4880830;29;20131;-72
2022/11/20 07:46:13;;;;;;;14.48;6.70;;;-0.10;99.90;;;;;;4876599;29;20048;-71
2022/11/20 07:48:38;;;;;;;17.88;7.72;;;-0.10;99.90;;;;;;4877206;29;20053;-71
2022/11/20 07:51:04;;;;;;;20.73;7.47;;;-0.10;99.90;;;;;;4891768;29;20193;-71
2022/11/20 07:53:29;;;;;;;13.85;6.38;;;0.00;99.90;;;;;;4895476;29;20055;-71
2022/11/20 07:55:59;;;;;;;16.85;6.90;;;0.00;99.90;;;;;;4892188;29;20057;-71
2022/11/20 07:58:25;;;;;;;13.32;6.53;;;0.00;99.90;;;;;;4875993;29;20056;-71
2022/11/20 08:00:51;;;;;;;14.75;6.50;;;0.00;99.90;;;;;;4894630;29;20056;-71
2022/11/20 08:03:16;;;;;;;15.93;7.10;;;0.10;99.90;;;;;;4894733;29;20394;-71
2022/11/20 08:05:42;;;;;;;13.85;6.60;;;0.10;99.90;;;;;;4891966;29;20123;-71
2022/11/20 08:08:08;;;;;;;13.82;6.25;;;0.10;99.90;;;;;;4894634;29;20057;-70
2022/11/20 08:10:33;;;;;;;14.98;6.32;;;0.20;99.90;;;;;;4891391;29;20098;-70
2022/11/20 08:15:50;;;;;;;14.70;6.60;;;0.40;99.90;;;;;;4879734;29;20104;-71
2022/11/20 08:18:15;;;;;;;14.90;6.75;;;0.20;99.90;;;;;;4895556;29;20470;-71
2022/11/20 08:20:41;;;;;;;16.63;6.93;;;0.30;99.90;;;;;;4892591;29;20091;-71
2022/11/20 08:23:07;;;;;;;16.35;7.10;;;0.30;99.90;;;;;;4891867;29;20040;-69
2022/11/20 08:25:34;;;;;;;;;;;0.30;99.90;;;;;;4878592;29;20056;-70
2022/11/20 08:28:10;;;;;;;16.35;6.78;;;0.30;99.90;;;;;;4893597;29;19927;-71
2022/11/20 08:30:36;;;;;;;14.75;6.50;;;0.20;99.90;;;;;;4895240;29;20068;-70
2022/11/20 08:33:08;;;;;;;17.58;7.88;;;0.10;99.90;;;;;;4894906;29;20049;-70
2022/11/20 08:35:38;;;;;;;16.30;6.32;;;0.00;99.90;;;;;;4892776;29;20053;-71
2022/11/20 08:38:07;;;;;;;16.85;6.68;;;-0.10;99.90;;;;;;4891753;29;20136;-72
2022/11/20 08:40:33;;;;;;;15.23;6.90;;;-0.10;99.90;;;;;;4894093;29;20044;-72
2022/11/20 08:42:59;;;;;;;18.20;7.45;;;-0.10;99.90;;;;;;4894442;29;20107;-73
2022/11/20 08:45:25;;;;;;;15.63;6.55;;;-0.10;99.90;;;;;;4894894;29;20049;-70
2022/11/20 08:47:50;;;;;;;13.25;6.45;;;0.10;99.90;;;;;;4893695;29;20092;-77
2022/11/20 08:50:17;;;;;;;15.57;6.28;;;0.20;99.90;;;;;;4893828;29;20052;-70
2022/11/20 08:52:43;;;;;;;18.63;7.72;;;0.30;99.90;;;;;;4894580;29;20450;-72
2022/11/20 08:55:09;;;;;;;13.05;6.80;;;0.40;99.90;;;;;;4894612;29;20159;-71
2022/11/20 08:57:36;;;;;;;17.23;6.50;;;0.40;99.90;;;;;;4893698;29;20056;-70
2022/11/20 09:00:04;;;;;;;14.63;6.72;;;0.40;99.90;;;;;;4893639;29;20057;-71
2022/11/20 09:02:29;;;;;;;16.10;6.68;;;0.50;99.90;;;;;;4883401;29;20045;-72
2022/11/20 09:04:55;;;;;;;17.08;6.95;;;0.60;99.90;;;;;;4874316;29;20068;-71
2022/11/20 09:07:21;;;;;;;14.57;6.53;;;0.70;99.90;;;;;;4907619;29;20109;-71
2022/11/20 09:09:47;;;;;;;15.13;6.65;;;0.70;99.90;;;;;;4888469;29;20048;-72
2022/11/20 09:12:13;;;;;;;16.00;7.43;;;1.00;99.90;;;;;;4894768;29;20061;-72
2022/11/20 09:14:40;;;;;;;18.30;7.53;;;0.90;99.90;;;;;;4892557;29;20594;-76
2022/11/20 09:17:07;;;;;;;15.00;7.32;;;0.90;99.90;;;;;;4892584;29;20055;-73
2022/11/20 09:19:33;;;;;;;12.77;6.43;;;0.90;99.90;;;;;;4884398;29;20061;-73
2022/11/20 09:21:59;;;;;;;;;;;1.00;99.90;;;;;;4886251;29;20076;-74
2022/11/20 09:24:26;;;;;;;16.08;6.55;;;1.00;99.90;;;;;;4890792;29;20015;-73
2022/11/20 09:26:52;;;;;;;15.32;6.60;;;1.00;99.90;;;;;;4895134;29;20041;-75
2022/11/20 09:29:17;;;;;;;13.35;6.40;;;1.00;99.90;;;;;;4895328;29;20549;-73
2022/11/20 09:31:43;;;;;;;14.90;6.85;;;1.00;99.90;;;;;;4893551;29;20057;-73
2022/11/20 09:34:09;;;;;;;15.10;7.32;;;1.00;99.90;;;;;;4876494;29;20045;-73
2022/11/20 09:36:35;;;;;;;14.35;6.72;;;1.10;99.90;;;;;;4891694;29;20053;-73
2022/11/20 09:39:01;;;;;;;15.57;7.03;;;1.20;99.90;;;;;;4887294;29;20060;-73
2022/11/20 09:41:43;;;;;;;17.92;7.35;;;1.30;99.90;;;;;;4891887;29;20127;-71
2022/11/20 09:44:35;;;;;;;15.05;6.57;;;1.30;99.90;;;;;;4893684;29;20120;-74
2022/11/20 09:47:17;;;;;;;15.73;6.60;;;1.30;99.90;;;;;;4894803;29;20056;-73
2022/11/20 09:49:53;;;;;;;19.00;7.20;;;1.30;99.90;;;;;;4894956;29;20091;-72
2022/11/20 09:52:37;;;;;;;14.90;6.35;;;1.40;99.90;;;;;;4873275;29;20471;-76
2022/11/20 09:55:04;;;;;;;13.13;5.47;;;1.40;99.90;;;;;;4895239;29;20459;-72
2022/11/20 09:57:42;;;;;;;15.88;5.85;;;1.50;99.90;;;;;;4897361;29;20099;-72
2022/11/20 10:00:14;;;;;;;13.50;6.55;;;1.70;99.90;;;;;;4895698;29;20115;-73
2022/11/20 10:02:54;;;;;;;17.70;7.00;;;1.70;99.90;;;;;;4897065;29;20048;-72
2022/11/20 10:05:27;;;;;;;17.70;7.18;;;1.80;99.90;;;;;;4893475;29;20695;-71
2022/11/20 10:08:15;;;;;;;14.52;6.57;;;1.90;99.90;;;;;;4884928;29;20101;-72
2022/11/20 10:10:46;;;;;;;17.88;6.25;;;2.10;99.90;;;;;;4871303;29;20120;-73
2022/11/20 10:13:29;;;;;;;18.40;7.70;;;2.30;99.90;;;;;;4893894;29;20044;-73
2022/11/20 10:16:36;;;;;;;13.93;6.07;;;2.30;99.90;;;;;;4893944;29;20091;-73
2022/11/20 10:19:13;;;;;;;13.95;6.50;;;2.40;99.90;;;;;;4831670;29;20200;-74
2022/11/20 10:22:00;;;;;;;14.57;7.30;;;2.70;99.90;;;;;;4882207;29;20063;-72
2022/11/20 10:24:48;;;;;;;16.30;6.13;;;2.90;99.90;;;;;;4894074;29;20463;-74
2022/11/20 10:27:44;;;;;;;13.60;6.22;;;3.30;99.90;;;;;;4891820;29;20406;-73
2022/11/20 10:30:15;;;;;;;13.35;5.85;;;3.70;99.90;;;;;;4893354;29;20048;-73
2022/11/20 10:33:03;;;;;;;13.32;5.68;;;4.00;99.90;;;;;;4894232;29;20414;-72
2022/11/20 10:35:52;;;;;;;13.15;6.20;;;4.10;99.90;;;;;;4892403;29;20048;-73
2022/11/20 10:38:25;;;;;;;9.90;4.90;;;4.30;99.90;;;;;;4891738;29;20644;-72
2022/11/20 10:41:24;;;;;;;12.43;5.43;;;4.40;99.90;;;;;;4892618;29;20602;-73
2022/11/20 10:43:47;;;;;;;13.60;5.75;;;4.50;99.90;;;;;;4893069;29;20049;-72
2022/11/20 10:46:22;;;;;;;12.88;6.07;;;4.70;99.90;;;;;;4888748;29;20048;-73
2022/11/20 10:48:48;;;;;;;12.57;5.15;;;4.30;99.90;;;;;;4893892;29;20120;-72
2022/11/20 10:51:52;;;;;;;13.18;5.90;;;4.20;99.90;;;;;;4888534;29;20411;-72
2022/11/20 10:54:22;;;;;;;14.60;6.30;;;4.00;99.90;;;;;;4892446;29;20048;-73
2022/11/20 10:56:51;;;;;;;17.33;5.80;;;3.90;99.90;;;;;;4892337;29;20045;-72
2022/11/20 10:59:25;;;;;;;13.23;6.43;;;3.80;99.90;;;;;;4892530;29;20049;-72
2022/11/20 11:01:51;;;;;;;13.45;6.28;;;3.70;99.90;;;;;;4893487;29;20041;-72
2022/11/20 11:04:42;;;;;;;12.95;6.03;;;3.70;99.90;;;;;;4891968;29;20071;-72
2022/11/20 11:07:25;;;;;;;10.45;5.18;;;3.50;99.90;;;;;;4890557;29;20045;-72
2022/11/20 11:09:55;;;;;;;15.43;5.97;;;3.40;99.90;;;;;;4875017;29;20446;-72
2022/11/20 11:12:24;;;;;;;10.45;4.97;;;3.40;99.90;;;;;;4890920;29;20044;-73
2022/11/20 11:14:55;;;;;;;12.20;5.25;;;3.50;99.90;;;;;;4889206;29;20107;-73
2022/11/20 11:17:32;;;;;;;14.60;6.15;;;3.50;99.90;;;;;;4893426;29;20051;-73
2022/11/20 11:20:14;;;;;;;12.60;5.38;;;3.60;99.90;;;;;;4891896;29;20498;-71
2022/11/20 11:22:48;;;;;;;15.45;6.30;;;3.60;99.90;;;;;;4889513;29;20052;-72
2022/11/20 11:25:28;;;;;;;14.77;5.15;;;3.60;99.90;;;;;;4892689;29;20151;-71
2022/11/20 11:27:56;;;;;;;12.43;5.45;;;3.70;99.90;;;;;;4888334;29;20048;-72
2022/11/20 11:30:23;;;;;;;12.20;5.45;;;3.70;99.90;;;;;;4892303;29;20099;-72
2022/11/20 11:32:50;;;;;;;11.10;5.60;;;3.80;99.90;;;;;;4893427;29;20040;-73
2022/11/20 11:35:26;;;;;;;11.77;5.20;;;3.80;99.90;;;;;;4891117;29;20502;-72
2022/11/20 11:38:13;;;;;;;11.18;5.15;;;3.70;99.90;;;;;;4892695;29;20131;-73
2022/11/20 11:40:39;;;;;;;;;;;3.60;99.90;;;;;;4886697;29;20135;-72
2022/11/20 11:45:04;;;;;;;9.88;4.80;;;3.60;99.90;;;;;;4890080;29;20010;-76
2022/11/20 11:46:01;;;;;;;15.38;5.40;;;3.60;99.90;;;;;;4891914;29;20055;-72
2022/11/20 11:48:27;;;;;;;11.43;4.82;;;3.60;99.90;;;;;;4893538;29;20056;-71
2022/11/20 11:50:53;;;;;;;11.57;4.85;;;3.70;99.90;;;;;;4893386;29;20048;-71
2022/11/20 11:53:21;;;;;;;12.55;5.20;;;3.70;99.90;;;;;;4893345;29;20056;-74
2022/11/20 11:55:58;;;;;;;13.88;5.28;;;3.80;99.90;;;;;;4885678;29;20607;-71
2022/11/20 11:58:38;;;;;;;;;;;3.90;99.90;;;;;;4890326;29;20053;-72
2022/11/20 12:01:34;;;;;;;9.75;4.57;;;4.00;99.90;;;;;;4891973;29;19981;-75
2022/11/20 12:04:02;;;;;;;8.57;3.83;;;4.10;99.90;;;;;;4889547;29;20089;-72
2022/11/20 12:06:31;;;;;;;9.00;4.68;;;4.40;99.90;;;;;;4892926;29;20080;-72
2022/11/20 12:09:03;;;;;;;9.82;4.63;;;4.90;99.90;;;;;;4890410;29;20068;-72
2022/11/20 12:11:29;;;;;;;10.85;4.82;;;6.30;99.90;;;;;;4893983;29;20048;-72
2022/11/20 12:14:10;;;;;;;11.88;4.70;;;7.90;99.90;;;;;;4891281;29;20063;-73
2022/11/20 12:16:38;;;;;;;9.00;4.47;;;9.30;99.80;;;;;;4881933;29;20152;-73
2022/11/20 12:19:11;;;;;;;9.98;4.88;;;10.40;94.10;;;;;;4893775;29;20055;-73
2022/11/20 12:21:57;;;;;;;9.40;4.80;;;11.10;90.30;;;;;;4894239;29;20152;-72
2022/11/20 12:24:31;;;;;;;10.70;5.30;;;11.70;81.40;;;;;;4887745;29;20048;-72
2022/11/20 12:27:00;;;;;;;10.23;5.22;;;12.20;84.80;;;;;;4891102;29;20072;-73
2022/11/20 12:29:25;;;;;;;10.27;4.75;;;12.80;84.40;;;;;;4890523;29;20045;-70
2022/11/20 12:32:10;;;;;;;10.05;5.60;;;13.10;82.20;;;;;;4888837;29;20056;-70
2022/11/20 12:34:45;;;;;;;9.75;5.10;;;13.00;75.80;;;;;;4883342;29;20052;-70
2022/11/20 12:37:22;;;;;;;11.27;5.28;;;12.10;76.90;;;;;;4893173;29;20598;-70
2022/11/20 12:39:52;;;;;;;9.77;5.13;;;10.90;75.70;;;;;;4894996;29;20049;-69
2022/11/20 12:45:45;;;;;;;11.48;5.30;;;8.50;78.40;;;;;;4890777;29;20059;-69
2022/11/20 12:48:28;;;;;;;11.70;5.30;;;7.40;82.40;;;;;;4881540;29;20074;-71
2022/11/20 12:51:06;;;;;;;11.32;5.45;;;6.70;84.40;;;;;;4881184;29;20068;-69
2022/11/20 12:53:55;;;;;;;10.95;5.20;;;6.20;86.40;;;;;;4885028;29;20060;-69
2022/11/20 12:56:57;;;;;;;11.20;4.82;;;5.90;88.30;;;;;;4894356;29;20075;-69
2022/11/20 12:59:48;;;;;;;12.40;5.13;;;5.70;89.00;;;;;;4896227;29;20068;-69
2022/11/20 13:02:35;;;;;;;11.07;4.95;;;5.70;90.50;;;;;;4897887;29;20525;-69